Time;durP1;ratioP1;P1;durP2;ratioP2;P2;SDS_P1;SDS_P2;PMS_P1;PMS_P2;Temp;Humidity;BMP_temperature;BMP_pressure;BME280_temperature;BME280_humidity;BME280_pressure;Samples;Min_cycle;Max_cycle;Signal;HPM_P1;HPM_P2
2022/04/16 00:00:50;;;;;;;15.00;9.48;;;9.20;99.90;;;;;;5086653;28;20098;-72
2022/04/16 00:03:16;;;;;;;15.77;9.63;;;9.10;99.90;;;;;;5087294;28;20052;-72
2022/04/16 00:05:42;;;;;;;14.70;10.35;;;9.10;99.90;;;;;;5090207;28;20089;-72
2022/04/16 00:08:07;;;;;;;14.07;9.68;;;9.00;99.90;;;;;;5080884;28;20040;-72
2022/04/16 00:10:35;;;;;;;14.10;9.85;;;8.90;99.90;;;;;;5087053;28;20048;-72
2022/04/16 00:13:01;;;;;;;12.50;9.30;;;8.90;99.90;;;;;;5086717;28;20036;-72
2022/04/16 00:15:26;;;;;;;14.55;9.30;;;8.90;99.90;;;;;;5086640;28;20468;-72
2022/04/16 00:17:53;;;;;;;12.10;8.80;;;8.80;99.90;;;;;;5087236;28;20047;-72
2022/04/16 00:20:18;;;;;;;14.15;8.63;;;8.70;99.90;;;;;;5086797;28;20039;-72
2022/04/16 00:22:44;;;;;;;12.75;9.15;;;8.70;99.90;;;;;;5085583;28;20508;-72
2022/04/16 00:25:11;;;;;;;12.98;9.13;;;8.60;99.90;;;;;;5087438;28;20044;-72
2022/04/16 00:27:37;;;;;;;12.60;8.52;;;8.60;99.90;;;;;;5086249;28;20052;-72
2022/04/16 00:30:04;;;;;;;15.77;9.77;;;8.50;99.90;;;;;;5088092;28;20128;-72
2022/04/16 00:32:29;;;;;;;13.13;9.45;;;8.40;99.90;;;;;;5084714;28;20505;-72
2022/04/16 00:34:55;;;;;;;14.88;9.85;;;8.50;99.90;;;;;;5087104;28;20065;-72
2022/04/16 00:37:21;;;;;;;13.48;9.98;;;8.40;99.90;;;;;;5087259;28;20092;-72
2022/04/16 00:39:46;;;;;;;12.77;9.68;;;8.30;99.90;;;;;;5087136;28;20077;-72
2022/04/16 00:42:12;;;;;;;13.45;9.43;;;8.30;99.90;;;;;;5085192;28;20385;-72
2022/04/16 00:44:37;;;;;;;14.65;8.77;;;8.30;99.90;;;;;;5085955;28;20058;-72
2022/04/16 00:47:04;;;;;;;13.82;9.52;;;8.20;99.90;;;;;;5086375;28;20501;-72
2022/04/16 00:49:30;;;;;;;13.93;9.73;;;8.20;99.90;;;;;;5086150;28;20043;-72
2022/04/16 00:51:56;;;;;;;14.20;10.13;;;8.20;99.90;;;;;;5083872;28;20044;-72
2022/04/16 00:54:22;;;;;;;14.68;9.57;;;8.20;99.90;;;;;;5063647;28;20079;-72
2022/04/16 00:56:47;;;;;;;13.73;9.02;;;8.10;99.90;;;;;;5087928;28;20137;-72
2022/04/16 00:59:13;;;;;;;12.05;9.10;;;8.00;99.90;;;;;;5088197;28;20436;-72
2022/04/16 01:01:39;;;;;;;13.55;8.93;;;8.00;99.90;;;;;;5077817;28;20147;-72
2022/04/16 01:04:05;;;;;;;13.63;9.98;;;7.90;99.90;;;;;;5086267;28;20122;-72
2022/04/16 01:06:40;;;;;;;14.23;9.65;;;7.90;99.90;;;;;;5089976;28;20134;-72
2022/04/16 01:09:06;;;;;;;13.95;10.25;;;7.90;99.90;;;;;;5083819;28;20059;-72
2022/04/16 01:11:32;;;;;;;15.55;9.75;;;7.80;99.90;;;;;;5088270;28;20036;-72
2022/04/16 01:14:00;;;;;;;12.85;9.85;;;7.80;99.90;;;;;;5085858;28;20047;-72
2022/04/16 01:16:30;;;;;;;16.13;10.05;;;7.80;99.90;;;;;;5088952;28;20040;-72
2022/04/16 01:18:56;;;;;;;15.23;9.73;;;7.80;99.90;;;;;;5067704;28;20520;-72
2022/04/16 01:21:22;;;;;;;14.88;10.23;;;7.70;99.90;;;;;;5084500;28;20086;-72
2022/04/16 01:23:47;;;;;;;16.88;10.10;;;7.60;99.90;;;;;;5083055;28;20063;-72
2022/04/16 01:26:13;;;;;;;16.80;10.00;;;7.60;99.90;;;;;;5087036;28;20090;-72
2022/04/16 01:28:40;;;;;;;16.63;10.02;;;7.60;99.90;;;;;;5085072;28;20040;-72
2022/04/16 01:31:06;;;;;;;15.43;10.18;;;7.50;99.90;;;;;;5087327;28;20146;-72
2022/04/16 01:33:32;;;;;;;14.40;9.95;;;7.50;99.90;;;;;;5084618;28;20130;-72
2022/04/16 01:35:58;;;;;;;13.77;9.88;;;7.50;99.90;;;;;;5085972;28;20044;-72
2022/04/16 01:38:26;;;;;;;14.98;10.07;;;7.50;99.90;;;;;;5084353;28;20518;-72
2022/04/16 01:40:56;;;;;;;15.45;11.15;;;7.50;99.90;;;;;;5078922;28;20059;-72
2022/04/16 01:43:22;;;;;;;18.42;10.98;;;7.50;99.90;;;;;;5082284;28;20040;-72
2022/04/16 01:45:49;;;;;;;18.10;10.27;;;7.50;99.90;;;;;;5087145;28;20911;-72
2022/04/16 01:48:16;;;;;;;15.75;10.60;;;7.50;99.90;;;;;;5085489;28;20036;-72
2022/04/16 01:50:42;;;;;;;15.95;10.43;;;7.40;99.90;;;;;;5086101;28;20169;-72
2022/04/16 01:53:07;;;;;;;17.67;10.98;;;7.40;99.90;;;;;;5084221;28;20067;-72
2022/04/16 01:55:33;;;;;;;16.23;10.27;;;7.40;99.90;;;;;;5084134;28;20169;-72
2022/04/16 01:57:58;;;;;;;16.42;10.88;;;7.30;99.90;;;;;;5083880;28;20048;-72
2022/04/16 02:00:24;;;;;;;15.30;10.65;;;7.30;99.90;;;;;;5084839;28;20119;-72
2022/04/16 02:02:50;;;;;;;14.30;10.82;;;7.30;99.90;;;;;;5085181;28;20724;-72
2022/04/16 02:05:16;;;;;;;18.48;10.68;;;7.40;99.90;;;;;;5068963;28;20428;-73
2022/04/16 02:07:42;;;;;;;14.80;9.75;;;7.40;99.90;;;;;;5086861;28;20208;-72
2022/04/16 02:10:08;;;;;;;15.25;10.40;;;7.50;99.90;;;;;;5084924;28;20093;-72
2022/04/16 02:12:37;;;;;;;17.83;11.73;;;7.50;99.90;;;;;;5083144;28;20520;-72
2022/04/16 02:15:04;;;;;;;18.95;11.20;;;7.50;99.90;;;;;;5084748;28;20441;-72
2022/04/16 02:17:32;;;;;;;17.50;13.10;;;7.60;99.90;;;;;;5081257;28;20084;-72
2022/04/16 02:19:58;;;;;;;16.20;12.00;;;7.60;99.90;;;;;;5084933;28;20055;-72
2022/04/16 02:22:24;;;;;;;18.60;13.10;;;7.60;99.90;;;;;;5085962;28;20032;-72
2022/04/16 02:24:49;;;;;;;17.13;12.20;;;7.60;99.90;;;;;;5085707;28;20084;-72
2022/04/16 02:27:15;;;;;;;20.00;13.68;;;7.60;99.90;;;;;;5079393;28;20052;-72
2022/04/16 02:29:41;;;;;;;19.83;13.55;;;7.60;99.90;;;;;;5081698;28;20055;-72
2022/04/16 02:32:07;;;;;;;20.45;12.57;;;7.60;99.90;;;;;;5084798;28;20114;-72
2022/04/16 02:34:33;;;;;;;18.70;13.60;;;7.60;99.90;;;;;;5083931;28;20542;-72
2022/04/16 02:36:59;;;;;;;18.73;12.45;;;7.50;99.90;;;;;;5085028;28;20097;-72
2022/04/16 02:39:25;;;;;;;21.60;13.48;;;7.50;99.90;;;;;;5077996;28;20032;-72
2022/04/16 02:41:51;;;;;;;19.92;13.52;;;7.50;99.90;;;;;;5089916;28;20044;-72
2022/04/16 02:47:06;;;;;;;20.15;12.60;;;7.40;99.90;;;;;;5085120;28;20487;-72
2022/04/16 02:49:39;;;;;;;17.15;12.43;;;7.30;99.90;;;;;;5084680;28;20036;-72
2022/04/16 02:52:07;;;;;;;19.85;13.75;;;7.30;99.90;;;;;;5074115;28;20108;-72
2022/04/16 02:54:32;;;;;;;18.75;13.20;;;7.30;99.90;;;;;;5086398;28;20063;-72
2022/04/16 02:56:58;;;;;;;18.17;12.60;;;7.30;99.90;;;;;;5084651;28;20047;-72
2022/04/16 02:59:24;;;;;;;20.48;14.07;;;7.30;99.90;;;;;;5085077;28;20044;-72
2022/04/16 03:01:50;;;;;;;21.73;13.30;;;7.20;99.90;;;;;;5082065;28;20091;-72
2022/04/16 03:04:16;;;;;;;20.25;13.93;;;7.10;99.90;;;;;;5087335;28;20064;-72
2022/04/16 03:06:41;;;;;;;20.60;13.13;;;7.10;99.90;;;;;;5084851;28;20065;-72
2022/04/16 03:09:08;;;;;;;20.45;13.43;;;7.10;99.90;;;;;;5085465;28;20113;-72
2022/04/16 03:11:33;;;;;;;17.77;12.75;;;7.00;99.90;;;;;;5084883;28;20043;-72
2022/04/16 03:17:31;;;;;;;18.30;12.82;;;7.00;99.90;;;;;;5084966;28;20046;-72
2022/04/16 03:19:28;;;;;;;19.10;13.23;;;6.90;99.90;;;;;;5085039;28;20082;-72
2022/04/16 03:21:54;;;;;;;19.33;12.77;;;6.90;99.90;;;;;;5085043;28;20072;-72
2022/04/16 03:24:19;;;;;;;17.23;12.55;;;6.90;99.90;;;;;;5084284;28;20060;-72
2022/04/16 03:26:45;;;;;;;21.20;14.13;;;6.90;99.90;;;;;;5083857;28;20059;-72
2022/04/16 03:29:10;;;;;;;22.45;14.93;;;6.80;99.90;;;;;;5084031;28;20067;-72
2022/04/16 03:31:36;;;;;;;22.00;13.95;;;6.80;99.90;;;;;;5065286;28;20120;-72
2022/04/16 03:34:01;;;;;;;21.17;13.40;;;6.80;99.90;;;;;;5085555;28;20051;-72
2022/04/16 03:36:27;;;;;;;19.98;13.52;;;6.80;99.90;;;;;;5084161;28;20051;-72
2022/04/16 03:38:53;;;;;;;19.35;13.73;;;6.70;99.90;;;;;;5085535;28;20264;-72
2022/04/16 03:41:19;;;;;;;19.02;13.32;;;6.70;99.90;;;;;;5079455;28;20373;-72
2022/04/16 03:43:45;;;;;;;17.13;12.77;;;6.70;99.90;;;;;;5086977;28;20512;-72
2022/04/16 03:46:10;;;;;;;17.73;13.45;;;6.70;99.90;;;;;;5082761;28;20044;-72
2022/04/16 03:48:36;;;;;;;20.02;12.43;;;6.70;99.90;;;;;;5084350;28;20044;-72
2022/04/16 03:51:01;;;;;;;18.80;12.57;;;6.60;99.90;;;;;;5083739;28;20056;-72
2022/04/16 03:53:27;;;;;;;23.05;15.48;;;6.60;99.90;;;;;;5084435;28;20055;-72
2022/04/16 04:01:21;;;;;;;20.38;14.75;;;6.60;99.90;;;;;;5090257;28;20063;-72
2022/04/16 04:03:46;;;;;;;23.52;15.98;;;6.50;99.90;;;;;;5088893;28;20028;-72
2022/04/16 04:06:12;;;;;;;22.15;15.32;;;6.60;99.90;;;;;;5082689;28;20044;-72
2022/04/16 04:08:37;;;;;;;20.70;14.23;;;6.60;99.90;;;;;;5089737;28;20044;-72
2022/04/16 04:11:03;;;;;;;21.50;15.60;;;6.70;99.90;;;;;;5082665;28;20040;-72
2022/04/16 04:13:29;;;;;;;25.10;17.33;;;6.70;99.90;;;;;;5085395;28;20131;-72
2022/04/16 04:15:55;;;;;;;28.70;17.25;;;6.80;99.90;;;;;;5074955;28;20044;-72
2022/04/16 04:18:22;;;;;;;34.10;19.40;;;6.80;99.90;;;;;;5085620;28;20047;-72
2022/04/16 04:20:48;;;;;;;26.90;17.63;;;6.90;99.90;;;;;;5089077;28;20356;-72
2022/04/16 04:23:13;;;;;;;30.40;19.77;;;6.90;99.90;;;;;;5090244;28;20054;-72
2022/04/16 04:25:39;;;;;;;26.85;18.08;;;6.90;99.90;;;;;;5087181;28;20052;-72
2022/04/16 04:28:05;;;;;;;31.27;20.33;;;6.90;99.90;;;;;;5089093;28;20063;-72
2022/04/16 04:30:30;;;;;;;35.45;21.38;;;6.90;99.90;;;;;;5088466;28;20360;-72
2022/04/16 04:32:58;;;;;;;32.38;21.52;;;7.00;99.90;;;;;;5088931;28;20115;-72
2022/04/16 04:35:24;;;;;;;30.67;21.20;;;7.00;99.90;;;;;;5085804;28;20067;-72
2022/04/16 04:37:50;;;;;;;33.78;22.05;;;7.00;99.90;;;;;;5086980;28;20044;-72
2022/04/16 04:40:15;;;;;;;35.25;22.95;;;7.00;99.90;;;;;;5088675;28;20047;-72
2022/04/16 04:42:41;;;;;;;30.52;21.42;;;7.10;99.90;;;;;;5081181;28;20055;-72
2022/04/16 04:45:09;;;;;;;36.83;23.33;;;7.10;99.90;;;;;;5090665;28;20137;-72
2022/04/16 04:47:35;;;;;;;31.98;21.63;;;7.10;99.90;;;;;;5088564;28;20040;-72
2022/04/16 04:50:01;;;;;;;34.05;22.77;;;7.20;99.90;;;;;;5089735;28;20036;-72
2022/04/16 04:52:27;;;;;;;32.45;21.15;;;7.20;99.90;;;;;;5094047;28;20545;-72
2022/04/16 04:54:53;;;;;;;34.08;21.95;;;7.30;99.90;;;;;;5087451;28;20062;-72
2022/04/16 04:57:19;;;;;;;33.75;22.35;;;7.30;99.90;;;;;;5088252;28;20040;-72
2022/04/16 04:59:45;;;;;;;34.70;22.77;;;7.30;99.90;;;;;;5086623;28;20502;-72
2022/04/16 05:02:10;;;;;;;38.20;23.77;;;7.40;99.90;;;;;;5086258;28;20169;-72
2022/04/16 05:04:36;;;;;;;36.22;22.67;;;7.40;99.90;;;;;;5087622;28;20580;-72
2022/04/16 05:07:03;;;;;;;36.80;23.52;;;7.40;99.90;;;;;;5087098;28;20044;-72
2022/04/16 05:09:29;;;;;;;32.30;22.35;;;7.50;99.90;;;;;;5087555;28;20337;-72
2022/04/16 05:11:54;;;;;;;33.85;21.98;;;7.60;99.90;;;;;;5088308;28;20051;-72
2022/04/16 05:14:21;;;;;;;33.30;22.88;;;7.60;99.90;;;;;;5089118;28;20052;-72
2022/04/16 05:16:47;;;;;;;35.97;24.63;;;7.60;99.90;;;;;;5088002;28;20046;-72
2022/04/16 05:19:14;;;;;;;39.40;23.98;;;7.70;99.90;;;;;;5090040;28;20119;-72
2022/04/16 05:21:40;;;;;;;35.58;22.15;;;7.70;99.90;;;;;;5081038;28;20052;-71
2022/04/16 05:24:06;;;;;;;30.85;21.27;;;7.70;99.90;;;;;;5081781;28;20032;-70
2022/04/16 05:26:32;;;;;;;35.05;22.98;;;7.80;99.90;;;;;;5069129;28;20069;-71
2022/04/16 05:28:58;;;;;;;31.75;21.05;;;7.80;99.90;;;;;;5088480;28;20108;-70
2022/04/16 05:31:26;;;;;;;33.42;22.45;;;7.90;99.90;;;;;;5086446;28;20060;-70
2022/04/16 05:36:37;;;;;;;29.73;21.10;;;7.90;99.90;;;;;;5088376;28;20048;-71
2022/04/16 05:39:03;;;;;;;29.15;19.70;;;8.00;99.90;;;;;;5085856;28;20404;-71
2022/04/16 05:41:28;;;;;;;27.38;18.63;;;8.00;99.90;;;;;;5084246;28;20043;-68
2022/04/16 05:43:54;;;;;;;26.90;18.73;;;8.00;99.90;;;;;;5080856;28;20537;-70
2022/04/16 05:46:20;;;;;;;25.95;17.77;;;8.00;99.90;;;;;;5087228;28;20044;-72
2022/04/16 05:48:45;;;;;;;27.02;18.85;;;8.10;99.90;;;;;;5081748;28;20040;-71
2022/04/16 05:51:11;;;;;;;26.35;18.48;;;8.10;99.90;;;;;;5088485;28;20048;-71
2022/04/16 05:53:38;;;;;;;24.95;17.58;;;8.10;99.90;;;;;;5086234;28;20048;-71
2022/04/16 05:56:04;;;;;;;25.98;17.48;;;8.20;99.90;;;;;;5085663;28;20530;-71
2022/04/16 05:58:30;;;;;;;23.52;16.45;;;8.20;99.90;;;;;;5088646;28;20036;-71
2022/04/16 06:00:56;;;;;;;24.20;16.95;;;8.30;99.90;;;;;;5085881;28;20040;-70
2022/04/16 06:03:22;;;;;;;24.55;17.33;;;8.30;99.90;;;;;;5088731;28;20184;-71
2022/04/16 06:05:48;;;;;;;23.45;17.00;;;8.30;99.90;;;;;;5086594;28;20036;-70
2022/04/16 06:08:13;;;;;;;22.92;16.13;;;8.40;99.90;;;;;;5088738;28;20036;-70
2022/04/16 06:10:39;;;;;;;21.67;15.90;;;8.40;99.90;;;;;;5087112;28;20126;-71
2022/04/16 06:13:05;;;;;;;23.65;15.18;;;8.40;99.90;;;;;;5090116;28;20072;-71
2022/04/16 06:15:31;;;;;;;22.98;14.88;;;8.50;99.90;;;;;;5085333;28;20126;-71
2022/04/16 06:17:57;;;;;;;21.10;14.65;;;8.60;99.90;;;;;;5089385;28;20500;-72
2022/04/16 06:20:23;;;;;;;21.73;15.32;;;8.60;99.90;;;;;;5088944;28;20062;-71
2022/04/16 06:22:49;;;;;;;23.08;15.52;;;8.70;99.90;;;;;;5083624;28;20044;-72
2022/04/16 06:25:14;;;;;;;20.48;14.60;;;8.90;99.90;;;;;;5087487;28;20063;-71
2022/04/16 06:27:40;;;;;;;19.10;13.98;;;9.10;99.90;;;;;;5086491;28;20054;-73
2022/04/16 06:30:10;;;;;;;18.60;14.15;;;9.30;99.90;;;;;;5084423;28;20056;-71
2022/04/16 06:32:37;;;;;;;18.67;13.13;;;9.50;99.90;;;;;;5086512;28;20185;-71
2022/04/16 06:35:05;;;;;;;20.77;14.00;;;9.70;99.90;;;;;;5083410;28;20032;-73
2022/04/16 06:37:34;;;;;;;17.80;12.82;;;9.80;99.90;;;;;;5086166;28;20043;-69
2022/04/16 06:40:02;;;;;;;19.45;13.40;;;9.90;99.90;;;;;;5088282;28;20052;-72
2022/04/16 06:42:28;;;;;;;19.23;12.75;;;10.00;99.90;;;;;;5088874;28;20061;-70
2022/04/16 06:44:53;;;;;;;17.23;12.43;;;10.00;99.90;;;;;;5088108;28;20044;-70
2022/04/16 06:47:19;;;;;;;18.00;12.90;;;10.10;99.90;;;;;;5084986;28;20047;-70
2022/04/16 06:49:44;;;;;;;18.13;12.68;;;10.20;99.90;;;;;;5086529;28;20168;-71
2022/04/16 06:52:10;;;;;;;17.27;12.23;;;10.20;99.90;;;;;;5080807;28;20132;-69
2022/04/16 06:54:36;;;;;;;19.95;12.90;;;10.20;99.90;;;;;;5078312;28;20521;-69
2022/04/16 06:57:05;;;;;;;18.08;11.68;;;10.20;99.90;;;;;;5082359;28;20556;-71
2022/04/16 06:59:31;;;;;;;16.52;11.60;;;10.20;99.90;;;;;;5083731;28;20112;-71
2022/04/16 07:01:56;;;;;;;16.08;11.88;;;10.30;99.90;;;;;;5078963;28;20170;-70
2022/04/16 07:04:22;;;;;;;17.13;12.20;;;10.30;99.90;;;;;;5074732;28;20128;-70
2022/04/16 07:06:47;;;;;;;19.55;11.90;;;10.30;99.90;;;;;;5095743;28;20058;-70
2022/04/16 07:09:13;;;;;;;17.13;12.10;;;10.40;99.90;;;;;;5079836;28;20040;-71
2022/04/16 07:11:38;;;;;;;17.35;11.98;;;10.40;99.90;;;;;;5087508;28;20119;-71
2022/04/16 07:14:04;;;;;;;17.52;11.77;;;10.50;99.90;;;;;;5087488;28;20111;-70
2022/04/16 07:16:29;;;;;;;17.05;11.93;;;10.50;99.90;;;;;;5081191;28;20056;-72
2022/04/16 07:18:55;;;;;;;17.77;12.57;;;10.60;99.90;;;;;;5070717;28;20082;-71
2022/04/16 07:21:20;;;;;;;18.70;12.25;;;10.70;99.90;;;;;;5070368;28;20127;-71
2022/04/16 07:23:46;;;;;;;19.90;12.38;;;10.80;99.90;;;;;;5071083;28;20456;-72
2022/04/16 07:26:11;;;;;;;18.25;12.68;;;10.80;99.90;;;;;;5069969;28;20372;-71
2022/04/16 07:28:37;;;;;;;18.27;12.30;;;10.90;99.90;;;;;;5084971;28;20040;-72
2022/04/16 07:31:02;;;;;;;17.55;12.07;;;10.90;99.90;;;;;;5079686;28;20544;-73
2022/04/16 07:33:29;;;;;;;18.00;12.93;;;10.90;99.90;;;;;;5076897;28;20040;-72
2022/04/16 07:35:55;;;;;;;17.92;12.95;;;11.00;99.90;;;;;;5091555;28;20070;-71
2022/04/16 07:38:21;;;;;;;19.48;12.18;;;11.10;99.90;;;;;;5091544;28;20040;-71
2022/04/16 07:40:47;;;;;;;18.65;11.98;;;11.10;99.90;;;;;;5087554;28;20054;-71
2022/04/16 07:43:15;;;;;;;17.85;11.77;;;11.10;99.90;;;;;;5091093;28;20043;-69
2022/04/16 07:45:41;;;;;;;17.13;11.80;;;11.10;99.90;;;;;;5092251;28;20044;-70
2022/04/16 07:48:07;;;;;;;17.85;11.43;;;11.10;99.90;;;;;;5089549;27;20465;-70
2022/04/16 07:50:32;;;;;;;17.35;11.95;;;11.10;99.90;;;;;;5089787;28;20040;-70
2022/04/16 07:52:58;;;;;;;17.55;11.38;;;11.20;99.90;;;;;;5088539;28;20044;-70
2022/04/16 07:55:23;;;;;;;17.92;11.88;;;11.20;99.90;;;;;;5088588;28;20044;-70
2022/04/16 07:57:49;;;;;;;17.67;11.98;;;11.20;99.90;;;;;;5068632;28;20194;-70
2022/04/16 08:00:15;;;;;;;19.95;12.77;;;11.30;99.90;;;;;;5083285;28;20040;-69
2022/04/16 08:02:43;;;;;;;19.05;11.13;;;11.40;99.90;;;;;;5085384;28;20054;-70
2022/04/16 08:05:09;;;;;;;17.73;11.73;;;11.40;99.90;;;;;;5089526;28;20055;-70
2022/04/16 08:07:34;;;;;;;18.52;11.57;;;11.50;99.90;;;;;;5088724;28;20048;-69
2022/04/16 08:10:00;;;;;;;17.27;11.20;;;11.50;99.90;;;;;;5089495;28;20046;-70
2022/04/16 08:12:26;;;;;;;16.33;10.75;;;11.50;99.90;;;;;;5088034;28;20052;-70
2022/04/16 08:14:52;;;;;;;15.75;10.60;;;11.50;99.90;;;;;;5087961;28;20115;-70
2022/04/16 08:17:20;;;;;;;15.73;10.75;;;11.50;99.90;;;;;;5086094;28;20130;-70
2022/04/16 08:19:46;;;;;;;17.40;11.68;;;11.60;99.90;;;;;;5089277;28;20048;-71
2022/04/16 08:22:17;;;;;;;16.92;11.27;;;11.60;99.90;;;;;;5089155;28;20349;-70
2022/04/16 08:24:54;;;;;;;14.43;11.25;;;11.60;99.90;;;;;;5088549;28;20097;-72
2022/04/16 08:27:19;;;;;;;15.35;10.55;;;11.60;99.90;;;;;;5088603;28;20391;-70
2022/04/16 08:29:45;;;;;;;14.68;9.88;;;11.80;99.90;;;;;;5090584;28;20040;-70
2022/04/16 08:32:10;;;;;;;15.02;10.02;;;11.80;99.90;;;;;;5087689;28;20048;-70
2022/04/16 08:34:36;;;;;;;14.25;10.02;;;11.90;99.90;;;;;;5090732;28;20116;-70
2022/04/16 08:37:01;;;;;;;12.63;8.70;;;12.00;99.90;;;;;;5089455;28;20059;-71
2022/04/16 08:39:28;;;;;;;14.23;9.07;;;12.10;99.90;;;;;;5076642;28;20044;-70
2022/04/16 08:41:55;;;;;;;12.88;8.95;;;12.20;99.90;;;;;;5069530;28;20508;-70
2022/04/16 08:44:23;;;;;;;14.05;9.10;;;12.30;99.90;;;;;;5076110;28;20084;-70
2022/04/16 08:46:49;;;;;;;11.95;8.38;;;12.30;99.90;;;;;;5084331;28;20509;-70
2022/04/16 08:49:15;;;;;;;13.13;8.60;;;12.30;99.90;;;;;;5088484;28;20130;-70
2022/04/16 08:51:43;;;;;;;11.80;8.45;;;12.40;99.90;;;;;;5064265;28;20167;-69
2022/04/16 08:54:12;;;;;;;12.40;8.35;;;12.50;99.90;;;;;;5079136;28;20044;-69
2022/04/16 08:56:39;;;;;;;11.60;7.95;;;12.40;99.90;;;;;;5086859;28;20055;-70
2022/04/16 08:59:04;;;;;;;13.30;8.60;;;12.40;99.90;;;;;;5088652;28;20090;-69
2022/04/16 09:01:30;;;;;;;12.85;8.18;;;12.40;99.90;;;;;;5089483;28;20081;-70
2022/04/16 09:03:58;;;;;;;10.85;7.50;;;12.40;99.90;;;;;;5089461;28;20388;-68
2022/04/16 09:06:25;;;;;;;11.50;7.75;;;12.40;99.90;;;;;;5084162;28;20044;-71
2022/04/16 09:08:50;;;;;;;12.30;7.60;;;12.50;99.90;;;;;;5089294;28;20040;-70
2022/04/16 09:11:21;;;;;;;12.93;8.05;;;12.50;99.90;;;;;;5081260;28;20044;-70
2022/04/16 09:13:49;;;;;;;11.63;7.88;;;12.60;99.90;;;;;;5089679;28;20087;-69
2022/04/16 09:16:16;;;;;;;10.63;6.82;;;12.60;99.90;;;;;;5089367;28;20051;-69
2022/04/16 09:18:53;;;;;;;10.45;6.50;;;12.60;99.90;;;;;;5078754;28;20054;-70
2022/04/16 09:21:25;;;;;;;10.98;7.03;;;12.70;99.90;;;;;;5063541;28;20044;-70
2022/04/16 09:23:56;;;;;;;9.98;6.30;;;12.70;99.90;;;;;;5088123;28;20491;-70
2022/04/16 09:26:34;;;;;;;9.85;6.13;;;12.80;99.90;;;;;;5086694;28;20051;-70
2022/04/16 09:29:12;;;;;;;10.40;6.00;;;12.80;99.90;;;;;;5089903;28;20082;-70
2022/04/16 09:31:39;;;;;;;9.63;5.75;;;13.00;99.90;;;;;;5084054;28;20274;-70
2022/04/16 09:34:19;;;;;;;9.57;5.97;;;13.10;99.90;;;;;;5085813;28;20048;-70
2022/04/16 09:36:46;;;;;;;9.88;5.78;;;13.10;99.90;;;;;;5089066;28;20036;-70
2022/04/16 09:39:13;;;;;;;9.80;5.55;;;13.20;99.90;;;;;;5088444;28;20079;-71
2022/04/16 09:41:40;;;;;;;7.68;4.70;;;13.30;99.90;;;;;;5087989;28;20097;-70
2022/04/16 09:44:20;;;;;;;7.35;4.47;;;13.30;99.90;;;;;;5085960;28;20408;-70
2022/04/16 09:46:46;;;;;;;7.85;4.38;;;13.40;99.70;;;;;;5067379;28;20052;-70
2022/04/16 09:49:13;;;;;;;7.47;4.57;;;13.50;99.50;;;;;;5068140;28;20108;-70
2022/04/16 09:51:42;;;;;;;8.05;4.80;;;13.50;98.90;;;;;;5088031;28;20340;-69
2022/04/16 09:54:09;;;;;;;7.03;4.38;;;13.60;98.20;;;;;;5087352;28;20127;-70
2022/04/16 09:56:36;;;;;;;7.18;3.95;;;13.60;98.00;;;;;;5087267;28;20448;-71
2022/04/16 09:59:06;;;;;;;6.72;3.88;;;13.70;96.80;;;;;;5071626;28;20138;-70
2022/04/16 10:01:34;;;;;;;6.13;3.00;;;13.70;94.50;;;;;;5085352;28;20118;-71
2022/04/16 10:04:03;;;;;;;5.85;3.17;;;13.70;94.00;;;;;;5088157;28;20052;-70
2022/04/16 10:06:30;;;;;;;7.47;3.78;;;13.80;95.10;;;;;;5089744;28;20043;-71
2022/04/16 10:08:57;;;;;;;7.40;3.60;;;13.90;95.40;;;;;;5088858;28;20060;-70
2022/04/16 10:14:25;;;;;;;7.38;3.38;;;14.00;93.00;;;;;;5088235;28;20412;-70
2022/04/16 10:17:06;;;;;;;5.95;3.47;;;13.90;92.30;;;;;;5086730;28;20055;-70
2022/04/16 10:19:39;;;;;;;6.22;3.50;;;14.00;92.90;;;;;;5089295;28;20119;-71
2022/04/16 10:22:05;;;;;;;5.75;3.20;;;14.10;93.80;;;;;;5086573;28;20485;-70
2022/04/16 10:24:30;;;;;;;5.20;2.90;;;14.10;92.70;;;;;;5087549;28;20043;-70
2022/04/16 10:27:07;;;;;;;5.47;2.70;;;14.10;91.70;;;;;;5088155;28;20139;-70
2022/04/16 10:29:37;;;;;;;5.03;2.80;;;14.20;90.40;;;;;;5089445;28;20048;-70
2022/04/16 10:32:13;;;;;;;5.18;2.83;;;14.10;87.50;;;;;;5084087;28;20055;-72
2022/04/16 10:34:40;;;;;;;5.90;2.33;;;14.10;81.70;;;;;;5088027;28;20044;-70
2022/04/16 10:37:07;;;;;;;4.53;2.45;;;14.10;85.00;;;;;;5087742;28;20072;-70
2022/04/16 10:39:35;;;;;;;4.00;2.35;;;14.20;85.10;;;;;;5089474;28;20040;-71
2022/04/16 10:42:05;;;;;;;5.13;2.42;;;14.20;83.30;;;;;;5087553;28;20044;-68
2022/04/16 10:44:46;;;;;;;6.00;2.60;;;14.20;80.60;;;;;;5078322;28;20056;-71
2022/04/16 10:47:16;;;;;;;6.07;2.35;;;14.20;82.20;;;;;;5085550;28;20118;-71
2022/04/16 10:49:42;;;;;;;4.07;2.03;;;14.30;81.00;;;;;;5083239;28;20047;-71
2022/04/16 10:52:24;;;;;;;4.07;2.13;;;14.40;78.70;;;;;;5083581;28;20048;-71
2022/04/16 10:55:00;;;;;;;3.53;1.90;;;14.40;73.90;;;;;;5084247;28;20402;-71
2022/04/16 10:57:26;;;;;;;3.33;1.35;;;14.40;69.90;;;;;;5079572;28;20405;-71
2022/04/16 10:59:56;;;;;;;3.72;1.67;;;14.40;71.10;;;;;;5084588;28;20047;-70
2022/04/16 11:02:27;;;;;;;3.88;1.90;;;14.40;70.70;;;;;;5078837;28;20043;-70
2022/04/16 11:05:05;;;;;;;3.25;1.60;;;14.40;71.60;;;;;;5083624;28;20051;-71
2022/04/16 11:07:36;;;;;;;3.20;1.30;;;14.40;70.80;;;;;;5084002;28;20472;-71
2022/04/16 11:10:03;;;;;;;4.95;1.10;;;14.50;71.20;;;;;;5077707;28;20090;-71
2022/04/16 11:12:29;;;;;;;3.20;1.30;;;14.50;69.30;;;;;;5085807;28;20044;-71
2022/04/16 11:14:55;;;;;;;3.72;1.70;;;14.50;68.30;;;;;;5087075;28;20079;-71
2022/04/16 11:17:21;;;;;;;4.45;1.90;;;14.60;67.70;;;;;;5087048;28;20369;-71
2022/04/16 11:20:00;;;;;;;4.78;2.20;;;14.50;66.40;;;;;;5087884;28;20129;-71
2022/04/16 11:22:26;;;;;;;4.18;1.90;;;14.50;63.90;;;;;;5086440;28;20357;-70
2022/04/16 11:24:52;;;;;;;6.38;2.17;;;14.60;68.30;;;;;;5077953;28;20055;-71
2022/04/16 11:36:11;;;;;;;4.67;2.10;;;14.80;67.70;;;;;;5085383;28;20075;-71
2022/04/16 11:38:37;;;;;;;;;;;14.90;64.20;;;;;;5071634;28;20499;-71
2022/04/16 11:41:10;;;;;;;4.88;2.05;;;14.90;62.20;;;;;;5075054;28;20312;-71
2022/04/16 11:43:39;;;;;;;3.63;1.70;;;14.90;62.20;;;;;;5074760;28;20036;-71
2022/04/16 11:46:12;;;;;;;3.65;1.75;;;14.90;61.90;;;;;;5075615;28;20182;-71
2022/04/16 11:48:43;;;;;;;3.92;1.55;;;14.90;60.40;;;;;;5069772;28;20468;-71
2022/04/16 11:51:11;;;;;;;3.50;1.70;;;14.90;59.30;;;;;;5072706;28;20091;-70
2022/04/16 11:53:50;;;;;;;4.70;1.55;;;14.90;58.10;;;;;;5074685;28;20057;-71
2022/04/16 11:56:22;;;;;;;4.13;1.58;;;15.00;59.10;;;;;;5087769;28;20044;-71
2022/04/16 11:58:51;;;;;;;3.40;1.30;;;15.10;58.90;;;;;;5077517;28;20063;-71
2022/04/16 12:01:23;;;;;;;3.75;1.30;;;15.10;56.90;;;;;;5090527;28;20102;-71
2022/04/16 12:03:52;;;;;;;1.88;1.00;;;15.20;58.80;;;;;;5089381;28;20078;-71
2022/04/16 12:06:20;;;;;;;2.50;1.00;;;15.30;57.40;;;;;;5091249;28;20083;-71
2022/04/16 12:08:46;;;;;;;1.55;0.90;;;15.40;55.50;;;;;;5090102;28;20040;-71
2022/04/16 12:11:13;;;;;;;1.70;0.90;;;15.50;55.40;;;;;;5074726;28;20492;-71
2022/04/16 12:13:40;;;;;;;1.15;0.70;;;15.50;53.00;;;;;;5079510;28;20100;-71
2022/04/16 12:16:08;;;;;;;1.58;0.77;;;15.50;49.70;;;;;;5089038;28;20044;-71
2022/04/16 12:18:53;;;;;;;2.63;0.95;;;15.60;51.10;;;;;;5089699;28;20508;-71
2022/04/16 12:21:19;;;;;;;3.45;0.90;;;15.60;48.00;;;;;;5089713;28;20040;-71
2022/04/16 12:23:45;;;;;;;1.75;0.95;;;15.60;50.80;;;;;;5087475;28;20090;-71
2022/04/16 12:26:17;;;;;;;2.10;1.00;;;15.60;48.70;;;;;;5088783;28;20136;-71
2022/04/16 12:28:46;;;;;;;2.35;1.08;;;15.60;50.70;;;;;;5088104;28;20070;-71
2022/04/16 12:31:11;;;;;;;3.03;1.50;;;15.60;52.60;;;;;;5086123;28;20052;-71
2022/04/16 12:33:37;;;;;;;3.08;1.30;;;15.70;54.20;;;;;;5087450;28;20487;-71
2022/04/16 12:36:03;;;;;;;2.85;1.35;;;15.70;55.00;;;;;;5088934;28;20579;-71
2022/04/16 12:38:31;;;;;;;4.28;1.63;;;15.70;54.50;;;;;;5088070;28;20315;-71
2022/04/16 12:41:08;;;;;;;2.67;1.30;;;15.80;55.10;;;;;;5089186;28;20463;-71
2022/04/16 12:43:37;;;;;;;3.03;1.40;;;15.80;54.50;;;;;;5088988;28;20044;-71
2022/04/16 12:46:06;;;;;;;2.78;1.27;;;15.90;54.90;;;;;;5085019;28;20074;-71
2022/04/16 12:48:34;;;;;;;2.72;1.30;;;15.90;55.80;;;;;;5088266;28;20068;-71
2022/04/16 12:51:01;;;;;;;2.78;1.20;;;15.90;53.50;;;;;;5088085;28;20125;-71
2022/04/16 12:53:26;;;;;;;2.85;1.20;;;16.00;51.50;;;;;;5087079;28;20052;-71
2022/04/16 12:55:52;;;;;;;3.20;1.17;;;15.90;50.80;;;;;;5086288;28;20432;-71
2022/04/16 12:58:18;;;;;;;4.32;1.20;;;15.90;51.60;;;;;;5089124;28;20044;-71
2022/04/16 13:00:47;;;;;;;2.35;1.00;;;15.90;50.30;;;;;;5090663;28;20516;-71
2022/04/16 13:03:13;;;;;;;1.58;0.93;;;16.00;50.30;;;;;;5088841;28;20059;-68